createdAt,value
2022-11-20T16:01:36.711Z,18.10
2022-11-20T16:04:11.850Z,17.20
2022-11-20T16:06:41.212Z,19.00
2022-11-20T16:09:11.689Z,23.40
2022-11-20T16:11:41.435Z,25.50
2022-11-20T16:14:30.990Z,24.00
2022-11-20T16:17:00.028Z,25.80
2022-11-20T16:19:29.009Z,26.80
2022-11-20T16:22:03.237Z,26.80
2022-11-20T16:24:32.748Z,22.70
2022-11-20T16:27:01.629Z,24.40
2022-11-20T16:29:30.408Z,22.90
2022-11-20T16:31:59.218Z,23.40
2022-11-20T16:34:28.106Z,20.30
2022-11-20T16:36:57.418Z,21.60
2022-11-20T16:39:27.010Z,29.00
2022-11-20T16:41:55.709Z,25.60
2022-11-20T16:44:24.785Z,26.50
2022-11-20T16:46:54.710Z,24.00
2022-11-20T16:49:23.531Z,25.30
2022-11-20T16:51:52.389Z,19.10
2022-11-20T16:54:22.009Z,25.00
2022-11-20T16:56:52.249Z,22.90
2022-11-20T16:59:21.161Z,23.00
2022-11-20T17:01:50.276Z,22.50
2022-11-20T17:04:19.292Z,22.10
2022-11-20T17:06:48.392Z,22.50
2022-11-20T17:09:17.740Z,21.80
2022-11-20T17:11:46.789Z,16.50
2022-11-20T17:14:15.590Z,17.20
2022-11-20T17:16:44.568Z,18.00
2022-11-20T17:19:15.885Z,17.30
2022-11-20T17:21:44.899Z,17.20
2022-11-20T17:24:16.431Z,17.60
2022-11-20T17:26:46.338Z,16.30
2022-11-20T17:29:24.588Z,19.80
2022-11-20T17:31:55.431Z,17.50
2022-11-20T17:34:25.143Z,19.60
2022-11-20T17:36:55.469Z,24.20
2022-11-20T17:39:24.349Z,21.30
2022-11-20T17:42:16.090Z,27.10
2022-11-20T17:44:45.512Z,20.20
2022-11-20T17:47:14.453Z,17.30
2022-11-20T17:49:43.199Z,16.90
2022-11-20T17:52:12.069Z,16.40
2022-11-20T17:54:40.857Z,18.60
2022-11-20T17:57:29.410Z,16.70
2022-11-20T17:59:58.391Z,20.20
2022-11-20T18:02:27.391Z,15.60
2022-11-20T18:04:56.169Z,15.60
2022-11-20T18:07:25.245Z,16.70
2022-11-20T18:09:53.969Z,17.40
2022-11-20T18:12:22.948Z,15.90
2022-11-20T18:14:51.849Z,17.30
2022-11-20T18:17:20.831Z,17.50
2022-11-20T18:20:21.342Z,24.70
2022-11-20T18:22:40.131Z,23.90
2022-11-20T18:25:09.910Z,26.50
2022-11-20T18:27:39.038Z,34.40
2022-11-20T18:30:09.029Z,34.80
2022-11-20T18:32:38.352Z,29.10
2022-11-20T18:35:08.076Z,34.10
2022-11-20T18:37:36.951Z,27.50
2022-11-20T18:40:06.990Z,26.90
2022-11-20T18:42:56.231Z,27.00
2022-11-20T18:45:25.251Z,26.30
2022-11-20T18:47:54.228Z,24.00
2022-11-20T18:50:23.729Z,22.00
2022-11-20T18:52:52.531Z,23.80
2022-11-20T18:55:24.670Z,22.70
2022-11-20T18:57:54.711Z,47.10
2022-11-20T19:00:24.080Z,27.60
2022-11-20T19:02:56.177Z,23.70
2022-11-20T19:05:24.946Z,24.00
2022-11-20T19:07:54.258Z,22.00
2022-11-20T19:10:24.642Z,24.50
2022-11-20T19:12:53.525Z,22.80
2022-11-20T19:15:22.468Z,24.70
2022-11-20T19:17:52.494Z,23.00
2022-11-20T19:20:21.427Z,24.30
2022-11-20T19:22:54.442Z,24.20
2022-11-20T19:25:23.465Z,18.80
2022-11-20T19:27:52.256Z,22.10
2022-11-20T19:30:21.248Z,22.10
2022-11-20T19:32:50.657Z,21.70
2022-11-20T19:35:19.447Z,26.50
2022-11-20T19:37:48.234Z,25.30
2022-11-20T19:40:17.764Z,24.90
2022-11-20T19:42:46.515Z,23.10
2022-11-20T19:45:15.822Z,24.60
2022-11-20T19:50:44.651Z,25.80
2022-11-20T19:53:14.245Z,27.70
2022-11-20T19:55:46.108Z,23.40
2022-11-20T19:58:14.787Z,31.40
2022-11-20T20:00:43.806Z,31.00
2022-11-20T20:03:12.776Z,35.00
2022-11-20T20:05:41.456Z,32.50
2022-11-20T20:08:13.046Z,32.20
2022-11-20T20:10:44.047Z,35.50
2022-11-20T20:13:12.647Z,33.70
2022-11-20T20:15:41.946Z,33.00
2022-11-20T20:18:10.629Z,30.30
2022-11-20T20:20:39.431Z,29.30
2022-11-20T20:23:08.326Z,29.80
2022-11-20T20:25:38.796Z,27.00
2022-11-20T20:28:07.717Z,30.30
2022-11-20T20:30:37.345Z,30.30
2022-11-20T20:33:06.126Z,33.10
2022-11-20T20:35:34.904Z,36.80
2022-11-20T20:38:03.599Z,36.90
2022-11-20T20:40:32.798Z,35.90
2022-11-20T20:43:01.706Z,35.90
2022-11-20T20:45:31.206Z,35.00
2022-11-20T20:48:00.507Z,34.60
2022-11-20T20:50:29.387Z,34.50
2022-11-20T20:53:00.223Z,32.60
2022-11-20T20:55:29.217Z,34.40
2022-11-20T20:57:58.008Z,34.20
2022-11-20T21:00:26.897Z,31.50
2022-11-20T21:02:55.906Z,38.30
2022-11-20T21:05:24.986Z,35.30
2022-11-20T21:08:12.616Z,37.10
2022-11-20T21:10:41.527Z,44.20
2022-11-20T21:13:10.399Z,41.10
2022-11-20T21:15:40.991Z,31.70
2022-11-20T21:18:09.834Z,35.80
2022-11-20T21:20:59.907Z,36.30
2022-11-20T21:23:28.908Z,32.60
2022-11-20T21:26:02.859Z,38.80
2022-11-20T21:28:33.811Z,35.20
2022-11-20T21:31:12.976Z,37.40
2022-11-20T21:33:44.445Z,48.10
2022-11-20T21:36:19.707Z,40.40
2022-11-20T21:38:51.156Z,35.40
2022-11-20T21:41:20.126Z,27.70
2022-11-20T21:44:09.199Z,35.50
2022-11-20T21:46:42.056Z,33.30
2022-11-20T21:49:11.386Z,34.10
2022-11-20T21:51:40.284Z,27.50
2022-11-20T21:54:11.979Z,37.90
2022-11-20T21:56:40.495Z,33.70
2022-11-20T21:59:14.332Z,35.60
2022-11-20T22:01:43.169Z,31.50
2022-11-20T22:04:16.163Z,32.00
2022-11-20T22:06:44.771Z,30.10
2022-11-20T22:09:13.565Z,30.20
2022-11-20T22:11:42.262Z,31.10
2022-11-20T22:14:21.180Z,30.00
2022-11-20T22:16:52.556Z,32.20
2022-11-20T22:19:23.679Z,29.90
2022-11-20T22:21:52.560Z,30.10
2022-11-20T22:24:23.877Z,26.40
2022-11-20T22:26:53.176Z,27.50
2022-11-20T22:29:22.374Z,28.30
2022-11-20T22:31:55.098Z,26.80
2022-11-20T22:34:24.108Z,27.30
2022-11-20T22:36:53.096Z,31.60
2022-11-20T22:39:23.607Z,28.50
2022-11-20T22:41:52.609Z,32.30
2022-11-20T22:44:21.455Z,30.90
2022-11-20T22:46:50.493Z,30.90
2022-11-20T22:49:19.666Z,28.50
2022-11-20T22:51:48.577Z,30.90
2022-11-20T22:54:17.266Z,30.70
2022-11-20T22:56:46.683Z,31.70
2022-11-20T23:27:38.640Z,28.40
2022-11-20T23:30:09.721Z,30.00
2022-11-20T23:32:38.888Z,26.30
2022-11-20T23:35:08.537Z,29.50
2022-11-20T23:37:37.610Z,26.90
2022-11-20T23:40:07.697Z,26.20
2022-11-20T23:42:36.832Z,26.60
2022-11-20T23:45:06.410Z,29.60
2022-11-20T23:47:35.434Z,28.40
2022-11-20T23:50:04.822Z,27.40
2022-11-20T23:52:34.011Z,28.00
2022-11-20T23:55:03.227Z,25.20
2022-11-20T23:57:32.323Z,26.00
